Etusivu
METAR-TAF:

METAR-TAF

Lentoasemat :

Waupaca Municipal Airport

Waupaca, Wisconsin, Yhdysvallat

Leveyspiiri: 44-20-01N, Pituuspiiri: 089-00-55W, korkeus merenpinnasta: 252 m

Tämänhetkinen sää

Tämä raportti tehtiin 21 minuuttia sitten, kello 12.35 UTC
Tuuli 3 kn koillisesta
Lämpötila 9°C
Kosteus 76%
Ilmanpaine 1022 hPa
Näkyvyys: 16.1 km
selkeää

METAR: KPCZ 211235Z AUTO 04003KT 10SM CLR 09/05 A3018 RMK AO2 T00850051

Aika: 07:56 (12:56 UTC)


TAF: puuttuu

Säähavainnot ja -ennusteet yli 4000 lentoasemalta (METAR- ja TAF-raportit).

Käytössä olevat sääasemat on merkitty karttaan keltaisilla ja punaisilla pisteillä.

Aseta hiiri pisteen päälle nähdäksesi sääaseman nimen.

Klikkaa sitten nähdäksesi säähavainnot ja -ennusteet.

Kartan vaihtaminen: klikkaa mustalla rastilla varustettuja vihreitä pisteitä, niin voit zoomata sisään; viivalla varustettua vihreää pistettä, niin voit zoomata ulos tai vihreitä nuolia, niin pääset viereisille kartoille.


METAR-TAF: